sensor_id;sensor_type;location;lat;lon;timestamp;temperature;humidity
62573;DHT22;48626;51.678;5.806;2023-03-01T00:02:01;-0.60;99.90
62573;DHT22;48626;51.678;5.806;2023-03-01T00:04:27;-0.60;99.90
62573;DHT22;48626;51.678;5.806;2023-03-01T00:06:53;-0.60;99.90
62573;DHT22;48626;51.678;5.806;2023-03-01T00:09:19;-0.70;99.90
62573;DHT22;48626;51.678;5.806;2023-03-01T00:11:45;-0.60;99.90
62573;DHT22;48626;51.678;5.806;2023-03-01T00:14:11;-0.70;99.90
62573;DHT22;48626;51.678;5.806;2023-03-01T00:16:39;-0.70;99.90
62573;DHT22;48626;51.678;5.806;2023-03-01T00:19:10;-0.70;99.90
62573;DHT22;48626;51.678;5.806;2023-03-01T00:21:36;-0.70;99.90
62573;DHT22;48626;51.678;5.806;2023-03-01T00:24:03;-0.70;99.90
62573;DHT22;48626;51.678;5.806;2023-03-01T00:26:29;-0.70;99.90
62573;DHT22;48626;51.678;5.806;2023-03-01T00:28:56;-0.80;99.90
62573;DHT22;48626;51.678;5.806;2023-03-01T00:31:24;-0.80;99.90
62573;DHT22;48626;51.678;5.806;2023-03-01T00:33:53;-0.80;99.90
62573;DHT22;48626;51.678;5.806;2023-03-01T00:36:23;-0.80;99.90
62573;DHT22;48626;51.678;5.806;2023-03-01T00:38:48;-0.80;99.90
62573;DHT22;48626;51.678;5.806;2023-03-01T00:41:16;-0.80;99.90
62573;DHT22;48626;51.678;5.806;2023-03-01T00:43:43;-0.80;99.90
62573;DHT22;48626;51.678;5.806;2023-03-01T00:46:15;-0.90;99.90
62573;DHT22;48626;51.678;5.806;2023-03-01T00:48:41;-0.90;99.90
62573;DHT22;48626;51.678;5.806;2023-03-01T00:51:16;-0.90;99.90
62573;DHT22;48626;51.678;5.806;2023-03-01T00:53:43;-0.90;99.90
62573;DHT22;48626;51.678;5.806;2023-03-01T00:56:10;-1.00;99.90
62573;DHT22;48626;51.678;5.806;2023-03-01T00:58:37;-1.00;99.90
62573;DHT22;48626;51.678;5.806;2023-03-01T01:01:23;-1.00;99.90
62573;DHT22;48626;51.678;5.806;2023-03-01T01:03:51;-1.10;99.90
62573;DHT22;48626;51.678;5.806;2023-03-01T01:06:23;-1.10;99.90
62573;DHT22;48626;51.678;5.806;2023-03-01T01:08:49;-1.10;99.90
62573;DHT22;48626;51.678;5.806;2023-03-01T01:11:16;-1.20;99.90
62573;DHT22;48626;51.678;5.806;2023-03-01T01:13:44;-1.20;99.90
62573;DHT22;48626;51.678;5.806;2023-03-01T01:16:10;-1.20;99.90
62573;DHT22;48626;51.678;5.806;2023-03-01T01:18:35;-1.20;99.90
62573;DHT22;48626;51.678;5.806;2023-03-01T01:21:10;-1.20;99.90
62573;DHT22;48626;51.678;5.806;2023-03-01T01:23:37;-1.30;99.90
62573;DHT22;48626;51.678;5.806;2023-03-01T01:26:05;-1.30;99.90
62573;DHT22;48626;51.678;5.806;2023-03-01T01:28:31;-1.30;99.90
62573;DHT22;48626;51.678;5.806;2023-03-01T01:30:57;-1.30;99.90
62573;DHT22;48626;51.678;5.806;2023-03-01T01:33:23;-1.30;99.90
62573;DHT22;48626;51.678;5.806;2023-03-01T01:35:48;-1.30;99.90
62573;DHT22;48626;51.678;5.806;2023-03-01T01:38:14;-1.30;99.90
62573;DHT22;48626;51.678;5.806;2023-03-01T01:40:44;-1.40;99.90
62573;DHT22;48626;51.678;5.806;2023-03-01T01:43:25;-1.40;99.90
62573;DHT22;48626;51.678;5.806;2023-03-01T01:46:02;-1.40;99.90
62573;DHT22;48626;51.678;5.806;2023-03-01T01:48:40;-1.40;99.90
62573;DHT22;48626;51.678;5.806;2023-03-01T01:51:11;-1.40;99.90
62573;DHT22;48626;51.678;5.806;2023-03-01T01:53:38;-1.50;99.90
62573;DHT22;48626;51.678;5.806;2023-03-01T01:56:07;-1.40;99.90
62573;DHT22;48626;51.678;5.806;2023-03-01T01:58:34;-1.50;99.90
62573;DHT22;48626;51.678;5.806;2023-03-01T02:01:01;-1.50;99.90
62573;DHT22;48626;51.678;5.806;2023-03-01T02:03:31;-1.50;99.90
62573;DHT22;48626;51.678;5.806;2023-03-01T02:06:07;-1.60;99.90
62573;DHT22;48626;51.678;5.806;2023-03-01T02:08:38;-1.60;99.90
62573;DHT22;48626;51.678;5.806;2023-03-01T02:11:05;-1.60;99.90
62573;DHT22;48626;51.678;5.806;2023-03-01T02:13:33;-1.60;99.90
62573;DHT22;48626;51.678;5.806;2023-03-01T02:16:04;-1.60;99.90
62573;DHT22;48626;51.678;5.806;2023-03-01T02:18:30;-1.70;99.90
62573;DHT22;48626;51.678;5.806;2023-03-01T02:21:20;-1.70;99.90
62573;DHT22;48626;51.678;5.806;2023-03-01T02:23:48;-1.70;99.90
62573;DHT22;48626;51.678;5.806;2023-03-01T02:26:23;-1.70;99.90
62573;DHT22;48626;51.678;5.806;2023-03-01T02:28:51;-1.70;99.90
62573;DHT22;48626;51.678;5.806;2023-03-01T02:31:18;-1.70;99.90
62573;DHT22;48626;51.678;5.806;2023-03-01T02:34:03;-1.70;99.90
62573;DHT22;48626;51.678;5.806;2023-03-01T02:36:36;-1.70;99.90
62573;DHT22;48626;51.678;5.806;2023-03-01T02:39:06;-1.80;99.90
62573;DHT22;48626;51.678;5.806;2023-03-01T02:41:35;-1.80;99.90
62573;DHT22;48626;51.678;5.806;2023-03-01T02:44:03;-1.80;99.90
62573;DHT22;48626;51.678;5.806;2023-03-01T02:46:28;-1.80;99.90
62573;DHT22;48626;51.678;5.806;2023-03-01T02:48:58;-1.80;99.90
62573;DHT22;48626;51.678;5.806;2023-03-01T02:51:45;-1.80;99.90
62573;DHT22;48626;51.678;5.806;2023-03-01T02:55:16;-1.90;99.90
62573;DHT22;48626;51.678;5.806;2023-03-01T02:57:11;-1.90;99.90
62573;DHT22;48626;51.678;5.806;2023-03-01T02:59:38;-1.90;99.90
62573;DHT22;48626;51.678;5.806;2023-03-01T03:02:26;-2.00;99.90
62573;DHT22;48626;51.678;5.806;2023-03-01T03:05:06;-2.00;99.90
62573;DHT22;48626;51.678;5.806;2023-03-01T03:07:38;-2.00;99.90
62573;DHT22;48626;51.678;5.806;2023-03-01T03:10:05;-2.00;99.90
62573;DHT22;48626;51.678;5.806;2023-03-01T03:12:32;-2.10;99.90
62573;DHT22;48626;51.678;5.806;2023-03-01T03:14:57;-2.10;99.90
62573;DHT22;48626;51.678;5.806;2023-03-01T03:17:23;-2.10;99.90
62573;DHT22;48626;51.678;5.806;2023-03-01T03:19:48;-2.10;99.90
62573;DHT22;48626;51.678;5.806;2023-03-01T03:22:15;-2.10;99.90
62573;DHT22;48626;51.678;5.806;2023-03-01T03:24:40;-2.10;99.90
62573;DHT22;48626;51.678;5.806;2023-03-01T03:27:07;-2.10;99.90
62573;DHT22;48626;51.678;5.806;2023-03-01T03:29:33;-2.20;99.90
62573;DHT22;48626;51.678;5.806;2023-03-01T03:31:59;-2.20;99.90
62573;DHT22;48626;51.678;5.806;2023-03-01T03:34:24;-2.20;99.90
62573;DHT22;48626;51.678;5.806;2023-03-01T03:36:54;-2.20;99.90
62573;DHT22;48626;51.678;5.806;2023-03-01T03:39:25;-2.20;99.90
62573;DHT22;48626;51.678;5.806;2023-03-01T03:41:52;-2.20;99.90
62573;DHT22;48626;51.678;5.806;2023-03-01T03:44:18;-2.20;99.90
62573;DHT22;48626;51.678;5.806;2023-03-01T03:46:44;-2.20;99.90
62573;DHT22;48626;51.678;5.806;2023-03-01T03:49:09;-2.30;99.90
62573;DHT22;48626;51.678;5.806;2023-03-01T03:51:35;-2.30;99.90
62573;DHT22;48626;51.678;5.806;2023-03-01T03:54:01;-2.30;99.90
62573;DHT22;48626;51.678;5.806;2023-03-01T03:56:26;-2.30;99.90
62573;DHT22;48626;51.678;5.806;2023-03-01T03:58:52;-2.20;99.90
62573;DHT22;48626;51.678;5.806;2023-03-01T04:01:18;-2.20;99.90
62573;DHT22;48626;51.678;5.806;2023-03-01T04:03:44;-2.20;99.90
62573;DHT22;48626;51.678;5.806;2023-03-01T04:06:13;-2.20;99.90
62573;DHT22;48626;51.678;5.806;2023-03-01T04:08:39;-2.10;99.90
62573;DHT22;48626;51.678;5.806;2023-03-01T04:11:06;-2.20;99.90
62573;DHT22;48626;51.678;5.806;2023-03-01T04:13:51;-2.10;99.90
62573;DHT22;48626;51.678;5.806;2023-03-01T04:16:18;-2.10;99.90
62573;DHT22;48626;51.678;5.806;2023-03-01T04:18:44;-2.10;99.90
62573;DHT22;48626;51.678;5.806;2023-03-01T04:21:10;-2.10;99.90
62573;DHT22;48626;51.678;5.806;2023-03-01T04:23:37;-2.10;99.90
62573;DHT22;48626;51.678;5.806;2023-03-01T04:26:03;-2.10;99.90
62573;DHT22;48626;51.678;5.806;2023-03-01T04:28:35;-2.10;99.90
62573;DHT22;48626;51.678;5.806;2023-03-01T04:31:13;-2.10;99.90
62573;DHT22;48626;51.678;5.806;2023-03-01T04:33:40;-2.10;99.90
62573;DHT22;48626;51.678;5.806;2023-03-01T04:36:06;-2.10;99.90
62573;DHT22;48626;51.678;5.806;2023-03-01T04:38:34;-2.10;99.90
62573;DHT22;48626;51.678;5.806;2023-03-01T04:41:03;-2.10;99.90
62573;DHT22;48626;51.678;5.806;2023-03-01T04:43:29;-2.20;99.90
62573;DHT22;48626;51.678;5.806;2023-03-01T04:45:54;-2.20;99.90
62573;DHT22;48626;51.678;5.806;2023-03-01T04:48:24;-2.20;99.90
62573;DHT22;48626;51.678;5.806;2023-03-01T04:50:50;-2.10;99.90
62573;DHT22;48626;51.678;5.806;2023-03-01T04:53:16;-2.10;99.90
62573;DHT22;48626;51.678;5.806;2023-03-01T04:55:44;-2.10;99.90
62573;DHT22;48626;51.678;5.806;2023-03-01T04:58:09;-2.10;99.90
62573;DHT22;48626;51.678;5.806;2023-03-01T05:00:35;-2.10;99.90
62573;DHT22;48626;51.678;5.806;2023-03-01T05:03:01;-2.10;99.90
62573;DHT22;48626;51.678;5.806;2023-03-01T05:05:30;-2.20;99.90
62573;DHT22;48626;51.678;5.806;2023-03-01T05:07:58;-2.20;99.90
62573;DHT22;48626;51.678;5.806;2023-03-01T05:10:24;-2.10;99.90
62573;DHT22;48626;51.678;5.806;2023-03-01T05:12:50;-2.10;99.90
62573;DHT22;48626;51.678;5.806;2023-03-01T05:15:17;-2.10;99.90
62573;DHT22;48626;51.678;5.806;2023-03-01T05:17:43;-2.10;99.90
62573;DHT22;48626;51.678;5.806;2023-03-01T05:20:10;-2.00;99.90
62573;DHT22;48626;51.678;5.806;2023-03-01T05:22:36;-2.00;99.90
62573;DHT22;48626;51.678;5.806;2023-03-01T05:25:03;-2.10;99.90
62573;DHT22;48626;51.678;5.806;2023-03-01T05:27:29;-2.10;99.90
62573;DHT22;48626;51.678;5.806;2023-03-01T05:29:55;-2.10;99.90
62573;DHT22;48626;51.678;5.806;2023-03-01T05:32:21;-2.10;99.90
62573;DHT22;48626;51.678;5.806;2023-03-01T05:34:47;-2.10;99.90
62573;DHT22;48626;51.678;5.806;2023-03-01T05:37:13;-2.10;99.90
62573;DHT22;48626;51.678;5.806;2023-03-01T05:39:39;-2.10;99.90
62573;DHT22;48626;51.678;5.806;2023-03-01T05:42:05;-2.20;99.90
62573;DHT22;48626;51.678;5.806;2023-03-01T05:44:30;-2.20;99.90
62573;DHT22;48626;51.678;5.806;2023-03-01T05:46:56;-2.20;99.90
62573;DHT22;48626;51.678;5.806;2023-03-01T05:49:23;-2.20;99.90
62573;DHT22;48626;51.678;5.806;2023-03-01T05:51:52;-2.20;99.90
62573;DHT22;48626;51.678;5.806;2023-03-01T05:54:20;-2.20;99.90
62573;DHT22;48626;51.678;5.806;2023-03-01T05:56:45;-2.20;99.90
62573;DHT22;48626;51.678;5.806;2023-03-01T05:59:12;-2.20;99.90
62573;DHT22;48626;51.678;5.806;2023-03-01T06:01:39;-2.20;99.90
62573;DHT22;48626;51.678;5.806;2023-03-01T06:04:05;-2.20;99.90
62573;DHT22;48626;51.678;5.806;2023-03-01T06:06:35;-2.20;99.90
62573;DHT22;48626;51.678;5.806;2023-03-01T06:09:03;-2.20;99.90
62573;DHT22;48626;51.678;5.806;2023-03-01T06:11:29;-2.20;99.90
62573;DHT22;48626;51.678;5.806;2023-03-01T06:13:54;-2.20;99.90
62573;DHT22;48626;51.678;5.806;2023-03-01T06:16:20;-2.30;99.90
62573;DHT22;48626;51.678;5.806;2023-03-01T06:18:46;-2.30;99.90
62573;DHT22;48626;51.678;5.806;2023-03-01T06:21:11;-2.30;99.90
62573;DHT22;48626;51.678;5.806;2023-03-01T06:23:37;-2.20;99.90
62573;DHT22;48626;51.678;5.806;2023-03-01T06:26:07;-2.20;99.90
62573;DHT22;48626;51.678;5.806;2023-03-01T06:28:34;-2.20;99.90
62573;DHT22;48626;51.678;5.806;2023-03-01T06:31:00;-2.20;99.90
62573;DHT22;48626;51.678;5.806;2023-03-01T06:33:26;-2.20;99.90
62573;DHT22;48626;51.678;5.806;2023-03-01T06:35:54;-2.20;99.90
62573;DHT22;48626;51.678;5.806;2023-03-01T06:38:19;-2.20;99.90
62573;DHT22;48626;51.678;5.806;2023-03-01T06:40:51;-2.20;99.90
62573;DHT22;48626;51.678;5.806;2023-03-01T06:43:17;-2.10;99.90
62573;DHT22;48626;51.678;5.806;2023-03-01T06:45:43;-2.20;99.90
62573;DHT22;48626;51.678;5.806;2023-03-01T06:48:09;-2.10;99.90
62573;DHT22;48626;51.678;5.806;2023-03-01T06:50:35;-2.10;99.90
62573;DHT22;48626;51.678;5.806;2023-03-01T06:53:01;-2.10;99.90
62573;DHT22;48626;51.678;5.806;2023-03-01T06:55:27;-2.10;99.90
62573;DHT22;48626;51.678;5.806;2023-03-01T06:58:00;-2.00;99.90
62573;DHT22;48626;51.678;5.806;2023-03-01T07:00:27;-2.00;99.90
62573;DHT22;48626;51.678;5.806;2023-03-01T07:02:53;-2.00;99.90
62573;DHT22;48626;51.678;5.806;2023-03-01T07:05:19;-1.90;99.90
62573;DHT22;48626;51.678;5.806;2023-03-01T07:07:44;-1.90;99.90
62573;DHT22;48626;51.678;5.806;2023-03-01T07:10:10;-1.80;99.90
62573;DHT22;48626;51.678;5.806;2023-03-01T07:12:36;-1.80;99.90
62573;DHT22;48626;51.678;5.806;2023-03-01T07:15:03;-1.80;99.90
62573;DHT22;48626;51.678;5.806;2023-03-01T07:17:29;-1.80;99.90
62573;DHT22;48626;51.678;5.806;2023-03-01T07:19:54;-1.70;99.90
62573;DHT22;48626;51.678;5.806;2023-03-01T07:22:20;-1.70;99.90
62573;DHT22;48626;51.678;5.806;2023-03-01T07:24:46;-1.60;99.90
62573;DHT22;48626;51.678;5.806;2023-03-01T07:27:11;-1.50;99.90
62573;DHT22;48626;51.678;5.806;2023-03-01T07:29:37;-1.40;99.90
62573;DHT22;48626;51.678;5.806;2023-03-01T07:32:04;-1.40;99.90
62573;DHT22;48626;51.678;5.806;2023-03-01T07:34:30;-1.30;99.90
62573;DHT22;48626;51.678;5.806;2023-03-01T07:36:55;-1.20;99.90
62573;DHT22;48626;51.678;5.806;2023-03-01T07:39:21;-1.10;99.90
62573;DHT22;48626;51.678;5.806;2023-03-01T07:41:49;-1.00;99.90
62573;DHT22;48626;51.678;5.806;2023-03-01T07:44:14;-0.90;99.90
62573;DHT22;48626;51.678;5.806;2023-03-01T07:46:41;-0.80;99.90
62573;DHT22;48626;51.678;5.806;2023-03-01T07:49:06;-0.70;99.90
62573;DHT22;48626;51.678;5.806;2023-03-01T07:51:32;-0.60;99.90
62573;DHT22;48626;51.678;5.806;2023-03-01T07:53:58;-0.50;99.90
62573;DHT22;48626;51.678;5.806;2023-03-01T07:56:23;-0.30;99.90
62573;DHT22;48626;51.678;5.806;2023-03-01T07:58:49;-0.30;99.90
62573;DHT22;48626;51.678;5.806;2023-03-01T08:01:17;-0.20;99.90
62573;DHT22;48626;51.678;5.806;2023-03-01T08:03:43;0.00;99.90
62573;DHT22;48626;51.678;5.806;2023-03-01T08:06:11;0.10;99.90
62573;DHT22;48626;51.678;5.806;2023-03-01T08:08:37;0.20;99.90
62573;DHT22;48626;51.678;5.806;2023-03-01T08:11:05;0.30;99.90
62573;DHT22;48626;51.678;5.806;2023-03-01T08:13:31;0.40;99.90
62573;DHT22;48626;51.678;5.806;2023-03-01T08:16:01;0.50;99.90
62573;DHT22;48626;51.678;5.806;2023-03-01T08:18:27;0.60;99.90
62573;DHT22;48626;51.678;5.806;2023-03-01T08:20:53;0.70;99.90
62573;DHT22;48626;51.678;5.806;2023-03-01T08:23:18;0.80;99.90
62573;DHT22;48626;51.678;5.806;2023-03-01T08:25:44;0.90;99.90
62573;DHT22;48626;51.678;5.806;2023-03-01T08:28:10;1.00;99.90
62573;DHT22;48626;51.678;5.806;2023-03-01T08:30:35;1.10;99.90
62573;DHT22;48626;51.678;5.806;2023-03-01T08:33:01;1.20;99.90
62573;DHT22;48626;51.678;5.806;2023-03-01T08:35:26;1.30;99.90
62573;DHT22;48626;51.678;5.806;2023-03-01T08:37:52;1.50;99.90
62573;DHT22;48626;51.678;5.806;2023-03-01T08:40:18;1.60;99.90
62573;DHT22;48626;51.678;5.806;2023-03-01T08:42:43;1.60;99.90
62573;DHT22;48626;51.678;5.806;2023-03-01T08:45:10;1.80;99.90
62573;DHT22;48626;51.678;5.806;2023-03-01T08:47:36;1.90;99.90
62573;DHT22;48626;51.678;5.806;2023-03-01T08:50:02;2.00;99.90
62573;DHT22;48626;51.678;5.806;2023-03-01T08:52:28;2.10;99.90
62573;DHT22;48626;51.678;5.806;2023-03-01T08:54:55;2.30;99.90
62573;DHT22;48626;51.678;5.806;2023-03-01T08:57:22;2.40;99.90
62573;DHT22;48626;51.678;5.806;2023-03-01T08:59:47;2.50;99.90
62573;DHT22;48626;51.678;5.806;2023-03-01T09:02:16;2.60;99.90
62573;DHT22;48626;51.678;5.806;2023-03-01T09:04:42;2.60;99.90
62573;DHT22;48626;51.678;5.806;2023-03-01T09:07:08;2.70;99.90
62573;DHT22;48626;51.678;5.806;2023-03-01T09:09:34;2.80;99.90
62573;DHT22;48626;51.678;5.806;2023-03-01T09:12:00;3.00;99.90
62573;DHT22;48626;51.678;5.806;2023-03-01T09:14:26;3.10;99.90
62573;DHT22;48626;51.678;5.806;2023-03-01T09:16:51;3.20;99.90
62573;DHT22;48626;51.678;5.806;2023-03-01T09:19:17;3.30;99.90
62573;DHT22;48626;51.678;5.806;2023-03-01T09:21:43;3.40;99.90
62573;DHT22;48626;51.678;5.806;2023-03-01T09:24:20;3.50;99.90
62573;DHT22;48626;51.678;5.806;2023-03-01T09:26:46;3.50;99.90
62573;DHT22;48626;51.678;5.806;2023-03-01T09:29:13;3.60;99.90
62573;DHT22;48626;51.678;5.806;2023-03-01T09:31:39;3.70;99.90
62573;DHT22;48626;51.678;5.806;2023-03-01T09:34:06;3.80;99.90
62573;DHT22;48626;51.678;5.806;2023-03-01T09:36:32;3.90;99.90
62573;DHT22;48626;51.678;5.806;2023-03-01T09:38:58;4.10;99.90
62573;DHT22;48626;51.678;5.806;2023-03-01T09:43:57;4.40;99.90
62573;DHT22;48626;51.678;5.806;2023-03-01T09:46:25;4.60;99.90
62573;DHT22;48626;51.678;5.806;2023-03-01T09:48:57;4.70;99.90
62573;DHT22;48626;51.678;5.806;2023-03-01T09:51:34;5.00;99.90
62573;DHT22;48626;51.678;5.806;2023-03-01T09:54:04;5.20;99.90
62573;DHT22;48626;51.678;5.806;2023-03-01T09:56:36;5.50;99.90
62573;DHT22;48626;51.678;5.806;2023-03-01T10:01:59;5.90;99.90
62573;DHT22;48626;51.678;5.806;2023-03-01T10:09:55;6.50;99.90
62573;DHT22;48626;51.678;5.806;2023-03-01T10:12:25;6.70;99.90
62573;DHT22;48626;51.678;5.806;2023-03-01T10:15:14;7.00;99.90
62573;DHT22;48626;51.678;5.806;2023-03-01T10:18:01;7.10;99.90
62573;DHT22;48626;51.678;5.806;2023-03-01T10:23:15;7.60;99.90
62573;DHT22;48626;51.678;5.806;2023-03-01T10:26:12;7.60;99.90
62573;DHT22;48626;51.678;5.806;2023-03-01T10:29:00;7.90;99.90
62573;DHT22;48626;51.678;5.806;2023-03-01T10:31:43;8.30;99.90
62573;DHT22;48626;51.678;5.806;2023-03-01T10:36:40;8.40;99.90
62573;DHT22;48626;51.678;5.806;2023-03-01T10:39:24;8.70;99.90
62573;DHT22;48626;51.678;5.806;2023-03-01T10:44:43;9.30;99.90
62573;DHT22;48626;51.678;5.806;2023-03-01T10:47:32;9.50;99.90
62573;DHT22;48626;51.678;5.806;2023-03-01T10:50:04;9.80;99.90
62573;DHT22;48626;51.678;5.806;2023-03-01T10:52:36;10.30;99.90
62573;DHT22;48626;51.678;5.806;2023-03-01T10:55:44;10.80;99.90
62573;DHT22;48626;51.678;5.806;2023-03-01T10:58:19;11.10;99.90
62573;DHT22;48626;51.678;5.806;2023-03-01T11:00:57;11.30;99.90
62573;DHT22;48626;51.678;5.806;2023-03-01T11:08:33;11.90;99.90
62573;DHT22;48626;51.678;5.806;2023-03-01T11:11:16;12.30;99.90
62573;DHT22;48626;51.678;5.806;2023-03-01T11:16:39;12.60;99.90
62573;DHT22;48626;51.678;5.806;2023-03-01T11:21:53;12.70;99.90
62573;DHT22;48626;51.678;5.806;2023-03-01T11:24:26;12.70;99.90
62573;DHT22;48626;51.678;5.806;2023-03-01T11:26:55;13.00;99.90
62573;DHT22;48626;51.678;5.806;2023-03-01T11:29:42;13.00;99.90
62573;DHT22;48626;51.678;5.806;2023-03-01T11:32:10;12.90;99.90
62573;DHT22;48626;51.678;5.806;2023-03-01T11:34:38;13.20;99.90
62573;DHT22;48626;51.678;5.806;2023-03-01T11:37:14;13.40;99.90
62573;DHT22;48626;51.678;5.806;2023-03-01T11:42:56;14.00;99.90
62573;DHT22;48626;51.678;5.806;2023-03-01T11:45:26;14.40;99.90
62573;DHT22;48626;51.678;5.806;2023-03-01T11:50:44;14.50;99.90
62573;DHT22;48626;51.678;5.806;2023-03-01T12:11:41;15.10;99.90
62573;DHT22;48626;51.678;5.806;2023-03-01T12:22:35;16.60;99.90
62573;DHT22;48626;51.678;5.806;2023-03-01T12:38:59;17.60;99.90
62573;DHT22;48626;51.678;5.806;2023-03-01T12:41:31;17.40;99.90
62573;DHT22;48626;51.678;5.806;2023-03-01T12:50:11;18.10;99.90
62573;DHT22;48626;51.678;5.806;2023-03-01T12:52:46;18.00;99.90
62573;DHT22;48626;51.678;5.806;2023-03-01T13:11:42;17.70;99.90
62573;DHT22;48626;51.678;5.806;2023-03-01T13:16:47;16.80;99.90
62573;DHT22;48626;51.678;5.806;2023-03-01T13:19:18;16.70;99.90
62573;DHT22;48626;51.678;5.806;2023-03-01T13:21:45;17.10;99.90
62573;DHT22;48626;51.678;5.806;2023-03-01T13:24:35;17.10;99.90
62573;DHT22;48626;51.678;5.806;2023-03-01T13:29:44;17.10;99.90
62573;DHT22;48626;51.678;5.806;2023-03-01T13:32:31;17.10;99.90
62573;DHT22;48626;51.678;5.806;2023-03-01T13:37:40;16.70;99.90
62573;DHT22;48626;51.678;5.806;2023-03-01T13:42:48;15.00;99.90
62573;DHT22;48626;51.678;5.806;2023-03-01T13:47:43;13.20;99.90
62573;DHT22;48626;51.678;5.806;2023-03-01T13:50:23;12.40;99.90
62573;DHT22;48626;51.678;5.806;2023-03-01T13:53:05;11.80;99.90
62573;DHT22;48626;51.678;5.806;2023-03-01T13:55:42;11.50;99.90
62573;DHT22;48626;51.678;5.806;2023-03-01T14:00:40;10.50;99.90
62573;DHT22;48626;51.678;5.806;2023-03-01T14:03:19;10.20;99.90
62573;DHT22;48626;51.678;5.806;2023-03-01T14:08:28;9.90;99.90
62573;DHT22;48626;51.678;5.806;2023-03-01T14:13:51;9.50;99.90
62573;DHT22;48626;51.678;5.806;2023-03-01T14:19:28;9.20;99.90
62573;DHT22;48626;51.678;5.806;2023-03-01T14:24:57;9.00;99.90
62573;DHT22;48626;51.678;5.806;2023-03-01T14:27:25;8.90;99.90
62573;DHT22;48626;51.678;5.806;2023-03-01T14:30:03;8.80;99.90
62573;DHT22;48626;51.678;5.806;2023-03-01T14:32:31;8.70;99.90
62573;DHT22;48626;51.678;5.806;2023-03-01T14:34:59;8.60;99.90
62573;DHT22;48626;51.678;5.806;2023-03-01T14:39:51;8.60;99.90
62573;DHT22;48626;51.678;5.806;2023-03-01T14:42:18;8.50;99.90
62573;DHT22;48626;51.678;5.806;2023-03-01T14:44:50;8.50;99.90
62573;DHT22;48626;51.678;5.806;2023-03-01T14:47:25;8.50;99.90
62573;DHT22;48626;51.678;5.806;2023-03-01T14:50:00;8.40;99.90
62573;DHT22;48626;51.678;5.806;2023-03-01T14:52:39;8.30;99.90
62573;DHT22;48626;51.678;5.806;2023-03-01T14:55:13;8.30;99.90
62573;DHT22;48626;51.678;5.806;2023-03-01T14:57:44;8.30;99.90
62573;DHT22;48626;51.678;5.806;2023-03-01T15:00:21;8.20;99.90
62573;DHT22;48626;51.678;5.806;2023-03-01T15:02:54;8.20;99.90
62573;DHT22;48626;51.678;5.806;2023-03-01T15:05:31;8.10;99.90
62573;DHT22;48626;51.678;5.806;2023-03-01T15:08:00;8.10;99.90
62573;DHT22;48626;51.678;5.806;2023-03-01T15:10:35;8.10;99.90
62573;DHT22;48626;51.678;5.806;2023-03-01T15:13:20;8.10;99.90
62573;DHT22;48626;51.678;5.806;2023-03-01T15:15:48;8.00;99.90
62573;DHT22;48626;51.678;5.806;2023-03-01T15:20:44;7.90;99.90
62573;DHT22;48626;51.678;5.806;2023-03-01T15:23:25;7.90;99.90
62573;DHT22;48626;51.678;5.806;2023-03-01T15:25:52;7.90;99.90
62573;DHT22;48626;51.678;5.806;2023-03-01T15:28:34;7.90;99.90
62573;DHT22;48626;51.678;5.806;2023-03-01T15:31:24;7.90;99.90
62573;DHT22;48626;51.678;5.806;2023-03-01T15:33:51;7.80;99.90
62573;DHT22;48626;51.678;5.806;2023-03-01T15:36:38;7.80;99.90
62573;DHT22;48626;51.678;5.806;2023-03-01T15:39:05;7.80;99.90
62573;DHT22;48626;51.678;5.806;2023-03-01T15:41:49;7.80;99.90
62573;DHT22;48626;51.678;5.806;2023-03-01T15:44:26;7.70;99.90
62573;DHT22;48626;51.678;5.806;2023-03-01T15:46:52;7.70;99.90
62573;DHT22;48626;51.678;5.806;2023-03-01T15:49:40;7.70;99.90
62573;DHT22;48626;51.678;5.806;2023-03-01T15:52:32;7.60;99.90
62573;DHT22;48626;51.678;5.806;2023-03-01T15:55:04;7.60;99.90
62573;DHT22;48626;51.678;5.806;2023-03-01T15:57:30;7.50;99.90
62573;DHT22;48626;51.678;5.806;2023-03-01T15:59:56;7.50;99.90
62573;DHT22;48626;51.678;5.806;2023-03-01T16:02:23;7.50;99.90
62573;DHT22;48626;51.678;5.806;2023-03-01T16:04:50;7.40;99.90
62573;DHT22;48626;51.678;5.806;2023-03-01T16:07:16;7.40;99.90
62573;DHT22;48626;51.678;5.806;2023-03-01T16:09:41;7.30;99.90
62573;DHT22;48626;51.678;5.806;2023-03-01T16:12:14;7.30;99.90
62573;DHT22;48626;51.678;5.806;2023-03-01T16:14:40;7.30;99.90
62573;DHT22;48626;51.678;5.806;2023-03-01T16:17:06;7.20;99.90
62573;DHT22;48626;51.678;5.806;2023-03-01T16:19:35;7.20;99.90
62573;DHT22;48626;51.678;5.806;2023-03-01T16:22:02;7.20;99.90
62573;DHT22;48626;51.678;5.806;2023-03-01T16:24:28;7.10;99.90
62573;DHT22;48626;51.678;5.806;2023-03-01T16:26:54;7.00;99.90
62573;DHT22;48626;51.678;5.806;2023-03-01T16:29:19;7.00;99.90
62573;DHT22;48626;51.678;5.806;2023-03-01T16:31:45;7.00;99.90
62573;DHT22;48626;51.678;5.806;2023-03-01T16:34:12;6.90;99.90
62573;DHT22;48626;51.678;5.806;2023-03-01T16:36:38;6.90;99.90
62573;DHT22;48626;51.678;5.806;2023-03-01T16:39:04;6.80;99.90
62573;DHT22;48626;51.678;5.806;2023-03-01T16:41:30;6.80;99.90
62573;DHT22;48626;51.678;5.806;2023-03-01T16:43:56;6.70;99.90
62573;DHT22;48626;51.678;5.806;2023-03-01T16:46:24;6.70;99.90
62573;DHT22;48626;51.678;5.806;2023-03-01T16:48:50;6.60;99.90
62573;DHT22;48626;51.678;5.806;2023-03-01T16:51:16;6.60;99.90
62573;DHT22;48626;51.678;5.806;2023-03-01T16:53:42;6.50;99.90
62573;DHT22;48626;51.678;5.806;2023-03-01T16:56:10;6.40;99.90
62573;DHT22;48626;51.678;5.806;2023-03-01T16:58:37;6.40;99.90
62573;DHT22;48626;51.678;5.806;2023-03-01T17:01:18;6.30;99.90
62573;DHT22;48626;51.678;5.806;2023-03-01T17:03:45;6.30;99.90
62573;DHT22;48626;51.678;5.806;2023-03-01T17:06:14;6.20;99.90
62573;DHT22;48626;51.678;5.806;2023-03-01T17:08:40;6.20;99.90
62573;DHT22;48626;51.678;5.806;2023-03-01T17:11:10;6.10;99.90
62573;DHT22;48626;51.678;5.806;2023-03-01T17:13:37;6.00;99.90
62573;DHT22;48626;51.678;5.806;2023-03-01T17:16:05;6.00;99.90
62573;DHT22;48626;51.678;5.806;2023-03-01T17:18:31;5.90;99.90
62573;DHT22;48626;51.678;5.806;2023-03-01T17:20:57;5.90;99.90
62573;DHT22;48626;51.678;5.806;2023-03-01T17:23:23;5.80;99.90
62573;DHT22;48626;51.678;5.806;2023-03-01T17:25:48;5.80;99.90
62573;DHT22;48626;51.678;5.806;2023-03-01T17:28:14;5.70;99.90
62573;DHT22;48626;51.678;5.806;2023-03-01T17:30:44;5.60;99.90
62573;DHT22;48626;51.678;5.806;2023-03-01T17:33:13;5.60;99.90
62573;DHT22;48626;51.678;5.806;2023-03-01T17:35:39;5.50;99.90
62573;DHT22;48626;51.678;5.806;2023-03-01T17:38:05;5.50;99.90
62573;DHT22;48626;51.678;5.806;2023-03-01T17:40:31;5.40;99.90
62573;DHT22;48626;51.678;5.806;2023-03-01T17:42:57;5.40;99.90
62573;DHT22;48626;51.678;5.806;2023-03-01T17:45:23;5.40;99.90
62573;DHT22;48626;51.678;5.806;2023-03-01T17:47:49;5.30;99.90
62573;DHT22;48626;51.678;5.806;2023-03-01T17:50:15;5.20;99.90
62573;DHT22;48626;51.678;5.806;2023-03-01T17:52:41;5.20;99.90
62573;DHT22;48626;51.678;5.806;2023-03-01T17:55:08;5.10;99.90
62573;DHT22;48626;51.678;5.806;2023-03-01T17:57:33;5.10;99.90
62573;DHT22;48626;51.678;5.806;2023-03-01T17:59:59;5.00;99.90
62573;DHT22;48626;51.678;5.806;2023-03-01T18:02:25;4.90;99.90